Hlavní strana
METAR-TAF:

METAR-TAF

Letiště :

Altenstadt, Německo

zeměpisná šířka: 47-50N, zeměpisná délka: 010-52E, výška: 739 m

Aktuální stav počasí

Zpráva byla vytvořena před 56 minutami, v 15:20 UTC
Východní vítr 10 kt
Teplota 1°C
Vlhkost vzduchu 86%
Tlak 1026 hPa
Viditelnost: 7000 m
Oblačno až skoro zataženo ve výšce 900 ft

METAR: ETHA 161520Z 09010KT 7000 BKN009 01/M01 Q1026 GRN

Čas: 17:16 (16:16 UTC)

Předpověď počasí

Zpráva byla vytvořena před 6 hodinami a 2 minutami, v 10:14 UTC
Předpověď platná od 16 v 10 UTC do 16 v 18 UTC
Východoseverovýchodní vítr 7 kt
Viditelnost: 4000 m
Oblačno až skoro zataženo ve výšce 300 ft
kouřmo
Dočasný
od 16 v 12 UTC do 16 v 16 UTC
Východoseverovýchodní vítr 12 kt s nárazy do 22 kt
Viditelnost: 1120 m
Oblačno až skoro zataženo ve výšce 700 ft
Polojasno ve výšce 28000 ft

TAF: ETHA 161014Z 1610/1618 07007KT 4000 BR BKN003 TEMPO 1612/1616 07012G22KT 6000 NSW BKN007 SCT280 CANCEL 1120

Stav a předpovědi počasí z více než 4 000 letišť (zprávy METAR a TAF).

Červené a žluté tečky na mapě představují dostupné meteorologické stanice.

Když kurzor umístíte na tečku, zobrazí se název stanice.

Pak kliknutím zobrazíte stav a předpověď počasí.

Chcete-li změnit mapu, kliknutím na zelené tlačítko se znaménkem +mapu přiblížíte, kliknutím na zelené tlačítko se znaménkem – mapu oddálíte a kliknutím na zelené šipky přejdete na sousední mapy.


METAR-TAF: